Time;durP1;ratioP1;P1;durP2;ratioP2;P2;SDS_P1;SDS_P2;PMS_P1;PMS_P2;Temp;Humidity;BMP_temperature;BMP_pressure;BME280_temperature;BME280_humidity;BME280_pressure;Samples;Min_cycle;Max_cycle;Signal;HPM_P1;HPM_P2
2021/09/11 00:02:17;;;;;;;26.25;19.13;;;;;;;;;;5093259;28;20123;-63
2021/09/11 00:05:02;;;;;;;22.48;16.95;;;;;;;;;;5093008;28;20090;-62
2021/09/11 00:07:47;;;;;;;24.83;17.52;;;;;;;;;;5093175;28;20048;-63
2021/09/11 00:10:33;;;;;;;26.27;18.73;;;;;;;;;;5093381;28;20048;-63
2021/09/11 00:13:18;;;;;;;26.00;18.52;;;;;;;;;;5092980;28;20048;-62
2021/09/11 00:16:03;;;;;;;23.67;17.98;;;;;;;;;;5092912;28;20060;-63
2021/09/11 00:18:48;;;;;;;24.10;18.63;;;;;;;;;;5093133;28;20108;-62
2021/09/11 00:21:34;;;;;;;26.23;20.33;;;;;;;;;;5093052;28;20051;-63
2021/09/11 00:24:19;;;;;;;27.45;21.02;;;;;;;;;;5092489;28;20044;-63
2021/09/11 00:27:05;;;;;;;36.10;24.13;;;;;;;;;;5093032;28;20094;-62
2021/09/11 00:29:49;;;;;;;42.15;27.05;;;;;;;;;;5092759;28;20498;-62
2021/09/11 00:32:35;;;;;;;52.53;31.27;;;;;;;;;;5092582;28;20048;-63
2021/09/11 00:35:20;;;;;;;58.35;32.80;;;;;;;;;;5092411;28;20668;-63
2021/09/11 00:38:06;;;;;;;54.53;33.53;;;;;;;;;;5092813;28;20056;-63
2021/09/11 00:40:51;;;;;;;70.22;37.97;;;;;;;;;;5092708;28;20123;-62
2021/09/11 00:43:40;;;;;;;72.57;39.80;;;;;;;;;;5092383;28;20051;-62
2021/09/11 00:46:25;;;;;;;76.22;39.13;;;;;;;;;;5077465;28;20064;-62
2021/09/11 00:49:10;;;;;;;76.00;39.53;;;;;;;;;;5092563;28;20052;-62
2021/09/11 00:51:56;;;;;;;80.60;42.00;;;;;;;;;;5092658;28;20122;-62
2021/09/11 00:54:41;;;;;;;95.00;44.42;;;;;;;;;;5092278;28;20044;-62
2021/09/11 00:57:26;;;;;;;99.28;46.10;;;;;;;;;;5092418;28;20052;-62
2021/09/11 01:00:12;;;;;;;103.18;48.75;;;;;;;;;;5077152;28;20410;-62
2021/09/11 01:02:57;;;;;;;108.05;49.53;;;;;;;;;;5091747;28;20048;-62
2021/09/11 01:05:43;;;;;;;99.97;47.20;;;;;;;;;;5092052;28;20052;-62
2021/09/11 01:08:28;;;;;;;116.90;52.67;;;;;;;;;;5077068;28;20498;-62
2021/09/11 01:11:14;;;;;;;128.60;53.05;;;;;;;;;;5092220;28;20044;-62
2021/09/11 01:13:59;;;;;;;124.50;53.53;;;;;;;;;;5091824;28;20052;-62
2021/09/11 01:16:44;;;;;;;129.77;55.33;;;;;;;;;;5092391;28;20055;-62
2021/09/11 01:19:29;;;;;;;132.07;54.80;;;;;;;;;;5092310;28;20123;-62
2021/09/11 01:22:15;;;;;;;145.10;57.30;;;;;;;;;;5092080;28;20048;-62
2021/09/11 01:25:07;;;;;;;134.77;55.58;;;;;;;;;;5091712;28;20040;-62
2021/09/11 01:27:53;;;;;;;145.90;59.92;;;;;;;;;;5092207;28;20048;-62
2021/09/11 01:30:38;;;;;;;154.05;60.35;;;;;;;;;;5092065;28;20418;-62
2021/09/11 01:33:24;;;;;;;127.68;57.53;;;;;;;;;;5091711;28;20060;-62
2021/09/11 01:36:09;;;;;;;158.57;61.13;;;;;;;;;;5092190;28;20433;-63
2021/09/11 01:38:55;;;;;;;137.45;55.40;;;;;;;;;;5091962;28;20056;-63
2021/09/11 01:41:40;;;;;;;140.65;55.95;;;;;;;;;;5092052;28;20461;-63
2021/09/11 01:44:25;;;;;;;126.90;53.13;;;;;;;;;;5091707;28;20060;-63
2021/09/11 01:47:10;;;;;;;141.77;57.03;;;;;;;;;;5091875;28;20044;-63
2021/09/11 01:49:56;;;;;;;116.30;52.85;;;;;;;;;;5092062;28;20052;-63
2021/09/11 01:52:41;;;;;;;134.63;56.92;;;;;;;;;;5091880;28;20048;-61
2021/09/11 01:55:27;;;;;;;131.88;56.20;;;;;;;;;;5091585;28;20056;-62
2021/09/11 01:58:12;;;;;;;174.90;59.55;;;;;;;;;;5091692;28;20052;-62
2021/09/11 02:00:57;;;;;;;143.18;57.30;;;;;;;;;;5091638;28;20510;-62
2021/09/11 02:03:42;;;;;;;139.77;56.97;;;;;;;;;;5091249;28;20056;-62
2021/09/11 02:06:28;;;;;;;179.85;60.15;;;;;;;;;;5090401;28;20561;-62
2021/09/11 02:09:13;;;;;;;165.95;61.95;;;;;;;;;;5091445;28;20048;-62
2021/09/11 02:11:59;;;;;;;143.70;57.17;;;;;;;;;;5091483;28;20052;-62
2021/09/11 02:14:44;;;;;;;141.82;58.97;;;;;;;;;;5092879;28;20056;-63
2021/09/11 02:17:29;;;;;;;145.15;59.20;;;;;;;;;;5095473;28;20056;-62
2021/09/11 02:20:14;;;;;;;143.98;57.65;;;;;;;;;;5095394;28;20559;-62
2021/09/11 02:23:00;;;;;;;152.88;60.47;;;;;;;;;;5079896;28;20060;-62
2021/09/11 02:25:45;;;;;;;151.90;60.53;;;;;;;;;;5095015;28;20119;-62
2021/09/11 02:28:30;;;;;;;146.25;60.55;;;;;;;;;;5095215;28;20044;-62
2021/09/11 02:31:15;;;;;;;166.95;62.95;;;;;;;;;;5095003;28;20526;-62
2021/09/11 02:34:00;;;;;;;140.98;60.17;;;;;;;;;;5094633;28;20449;-62
2021/09/11 02:36:46;;;;;;;127.43;58.88;;;;;;;;;;5095095;28;20048;-62
2021/09/11 02:39:31;;;;;;;124.88;56.28;;;;;;;;;;5094975;28;20052;-61
2021/09/11 02:42:16;;;;;;;105.60;52.97;;;;;;;;;;5095021;28;20060;-62
2021/09/11 02:45:02;;;;;;;90.50;49.67;;;;;;;;;;5094616;28;20413;-62
2021/09/11 02:47:47;;;;;;;92.10;49.10;;;;;;;;;;5094765;28;20048;-62
2021/09/11 02:50:32;;;;;;;98.45;50.03;;;;;;;;;;5094923;28;20044;-62
2021/09/11 02:53:18;;;;;;;88.45;48.63;;;;;;;;;;5094719;28;20048;-62
2021/09/11 02:56:03;;;;;;;84.05;46.55;;;;;;;;;;5094595;28;20552;-62
2021/09/11 02:58:49;;;;;;;91.32;48.03;;;;;;;;;;5094723;28;20052;-62
2021/09/11 03:01:34;;;;;;;87.45;46.92;;;;;;;;;;5094598;28;20052;-62
2021/09/11 03:04:20;;;;;;;67.75;40.70;;;;;;;;;;5094237;28;20460;-62
2021/09/11 03:07:05;;;;;;;71.30;43.10;;;;;;;;;;5094304;28;20127;-62
2021/09/11 03:09:50;;;;;;;67.05;40.35;;;;;;;;;;5094474;28;20056;-62
2021/09/11 03:12:35;;;;;;;59.60;38.42;;;;;;;;;;5094295;28;20068;-62
2021/09/11 03:15:20;;;;;;;59.97;38.50;;;;;;;;;;5093970;28;20520;-62
2021/09/11 03:18:06;;;;;;;55.20;37.45;;;;;;;;;;5094345;28;20071;-62
2021/09/11 03:20:51;;;;;;;53.30;34.17;;;;;;;;;;5094223;28;20579;-62
2021/09/11 03:23:37;;;;;;;53.97;35.10;;;;;;;;;;5093715;28;20525;-62
2021/09/11 03:26:22;;;;;;;53.75;33.22;;;;;;;;;;5093445;28;20048;-62
2021/09/11 03:29:07;;;;;;;46.63;29.33;;;;;;;;;;5093949;28;20498;-62
2021/09/11 03:31:52;;;;;;;37.60;25.35;;;;;;;;;;5093853;28;20070;-62
2021/09/11 03:34:37;;;;;;;33.47;22.23;;;;;;;;;;5153314;22;20051;-65
2021/09/11 03:37:23;;;;;;;29.88;21.30;;;;;;;;;;5114236;28;20127;-65
2021/09/11 03:40:08;;;;;;;28.05;19.40;;;;;;;;;;5114570;28;20051;-65
2021/09/11 03:42:53;;;;;;;28.70;18.17;;;;;;;;;;5114176;28;20450;-65
2021/09/11 03:45:39;;;;;;;29.83;18.42;;;;;;;;;;5113700;28;20501;-65
2021/09/11 03:48:24;;;;;;;27.45;16.83;;;;;;;;;;5113989;28;20127;-65
2021/09/11 03:51:09;;;;;;;24.20;14.95;;;;;;;;;;5114183;28;20078;-65
2021/09/11 03:53:55;;;;;;;23.05;15.38;;;;;;;;;;5113699;28;20048;-65
2021/09/11 03:56:41;;;;;;;22.95;14.38;;;;;;;;;;5113827;28;20063;-65
2021/09/11 03:59:27;;;;;;;21.65;14.18;;;;;;;;;;5114100;28;20593;-65
2021/09/11 04:02:12;;;;;;;21.40;12.43;;;;;;;;;;5113871;28;20043;-65
2021/09/11 04:04:57;;;;;;;24.13;13.05;;;;;;;;;;5113713;28;20052;-65
2021/09/11 04:07:42;;;;;;;21.23;12.98;;;;;;;;;;5113829;28;20119;-65
2021/09/11 04:10:28;;;;;;;22.45;14.25;;;;;;;;;;5113656;28;20044;-65
2021/09/11 04:13:13;;;;;;;25.05;14.55;;;;;;;;;;5113479;28;20051;-64
2021/09/11 04:15:58;;;;;;;25.58;14.23;;;;;;;;;;5113679;28;20055;-65
2021/09/11 04:18:44;;;;;;;24.23;14.90;;;;;;;;;;5113476;28;20048;-65
2021/09/11 04:21:29;;;;;;;26.38;16.15;;;;;;;;;;5113488;28;20059;-64
2021/09/11 04:24:15;;;;;;;28.40;17.42;;;;;;;;;;5113143;28;20043;-65
2021/09/11 04:27:00;;;;;;;30.60;18.50;;;;;;;;;;5113323;28;20051;-65
2021/09/11 04:29:45;;;;;;;36.33;19.42;;;;;;;;;;5113108;28;20122;-64
2021/09/11 04:32:30;;;;;;;44.83;23.23;;;;;;;;;;5113266;28;20066;-64
2021/09/11 04:35:16;;;;;;;39.55;23.10;;;;;;;;;;5096384;28;20048;-64
2021/09/11 04:38:01;;;;;;;39.78;24.58;;;;;;;;;;5091877;28;20052;-64
2021/09/11 04:40:46;;;;;;;44.67;25.50;;;;;;;;;;5092631;28;20051;-64
2021/09/11 04:43:32;;;;;;;46.28;26.92;;;;;;;;;;5092421;28;20109;-64
2021/09/11 04:46:17;;;;;;;47.33;26.63;;;;;;;;;;5092595;28;20047;-64
2021/09/11 04:49:02;;;;;;;48.75;28.45;;;;;;;;;;5092436;28;20498;-64
2021/09/11 04:51:48;;;;;;;54.30;29.38;;;;;;;;;;5092666;28;20127;-64
2021/09/11 04:54:33;;;;;;;53.05;29.40;;;;;;;;;;5092149;28;20063;-64
2021/09/11 04:57:19;;;;;;;49.15;29.02;;;;;;;;;;5092324;28;20052;-64
2021/09/11 05:00:04;;;;;;;50.60;30.15;;;;;;;;;;5092485;28;20056;-64
2021/09/11 05:02:50;;;;;;;51.65;30.45;;;;;;;;;;5076996;28;20510;-64
2021/09/11 05:05:35;;;;;;;53.97;30.10;;;;;;;;;;5091899;28;20048;-64
2021/09/11 05:08:22;;;;;;;55.47;31.17;;;;;;;;;;5092318;28;20055;-64
2021/09/11 05:11:07;;;;;;;56.25;32.15;;;;;;;;;;5092327;28;20052;-64
2021/09/11 05:13:53;;;;;;;54.47;30.02;;;;;;;;;;5091850;28;20405;-63
2021/09/11 05:16:38;;;;;;;67.18;34.45;;;;;;;;;;5092364;28;20052;-64
2021/09/11 05:19:23;;;;;;;60.08;33.28;;;;;;;;;;5092227;28;20056;-64
2021/09/11 05:22:09;;;;;;;69.10;35.90;;;;;;;;;;5092065;28;20048;-64
2021/09/11 05:24:54;;;;;;;62.30;33.45;;;;;;;;;;5093478;28;20047;-64
2021/09/11 05:27:39;;;;;;;62.00;33.75;;;;;;;;;;5112582;28;20052;-63
2021/09/11 05:30:25;;;;;;;62.72;33.40;;;;;;;;;;5112283;28;20052;-64
2021/09/11 05:33:10;;;;;;;65.60;34.50;;;;;;;;;;5112344;28;20052;-64
2021/09/11 05:35:55;;;;;;;59.90;33.08;;;;;;;;;;5112370;28;20558;-64
2021/09/11 05:38:40;;;;;;;66.68;34.10;;;;;;;;;;5112371;28;20048;-64
2021/09/11 05:41:26;;;;;;;66.55;34.42;;;;;;;;;;5112460;28;20052;-64
2021/09/11 05:44:11;;;;;;;65.00;34.53;;;;;;;;;;5112052;28;20048;-64
2021/09/11 05:46:58;;;;;;;56.67;32.72;;;;;;;;;;5112210;28;20119;-64
2021/09/11 05:49:43;;;;;;;48.78;29.48;;;;;;;;;;5113914;28;20650;-64
2021/09/11 05:52:28;;;;;;;55.92;32.67;;;;;;;;;;5116295;28;20047;-64
2021/09/11 05:55:15;;;;;;;48.72;29.83;;;;;;;;;;5116021;28;20051;-64
2021/09/11 05:58:00;;;;;;;54.58;30.00;;;;;;;;;;5116418;28;20048;-64
2021/09/11 06:00:46;;;;;;;48.00;29.70;;;;;;;;;;5116237;28;20123;-64
2021/09/11 06:03:32;;;;;;;53.22;30.45;;;;;;;;;;5115784;28;20048;-64
2021/09/11 06:06:17;;;;;;;48.70;29.30;;;;;;;;;;5100901;28;20060;-64
2021/09/11 06:09:02;;;;;;;52.67;30.80;;;;;;;;;;5115985;28;20055;-64
2021/09/11 06:11:48;;;;;;;50.58;29.17;;;;;;;;;;5115886;28;20052;-64
2021/09/11 06:14:33;;;;;;;54.60;30.00;;;;;;;;;;5115515;28;20478;-64
2021/09/11 06:17:18;;;;;;;50.40;31.88;;;;;;;;;;5115983;28;20043;-64
2021/09/11 06:20:05;;;;;;;56.28;31.25;;;;;;;;;;5115663;28;20051;-65
2021/09/11 06:22:50;;;;;;;52.05;30.27;;;;;;;;;;5104166;28;20044;-64
2021/09/11 06:25:35;;;;;;;53.33;32.10;;;;;;;;;;5102557;28;20051;-64
2021/09/11 06:28:23;;;;;;;54.22;32.53;;;;;;;;;;5113844;28;20051;-64
2021/09/11 06:31:09;;;;;;;51.90;31.80;;;;;;;;;;5115722;28;20047;-64
2021/09/11 06:33:54;;;;;;;53.03;33.55;;;;;;;;;;5115059;28;20509;-65
2021/09/11 06:36:39;;;;;;;55.20;33.53;;;;;;;;;;5111110;28;20413;-65
2021/09/11 06:39:25;;;;;;;49.83;31.65;;;;;;;;;;5103251;28;20052;-65
2021/09/11 06:42:12;;;;;;;48.97;31.63;;;;;;;;;;5094771;28;20498;-65
2021/09/11 06:44:58;;;;;;;53.45;33.10;;;;;;;;;;5097959;28;20477;-66
2021/09/11 06:47:43;;;;;;;53.08;32.03;;;;;;;;;;5114662;28;20063;-65
2021/09/11 06:50:28;;;;;;;54.90;34.67;;;;;;;;;;5114745;28;20047;-65
2021/09/11 06:53:14;;;;;;;52.53;32.42;;;;;;;;;;5114476;28;20123;-65
2021/09/11 06:55:59;;;;;;;56.67;35.55;;;;;;;;;;5114985;28;20048;-65
2021/09/11 06:58:44;;;;;;;50.58;32.10;;;;;;;;;;5114926;28;20052;-65
2021/09/11 07:01:29;;;;;;;48.33;32.47;;;;;;;;;;5113904;28;20502;-65
2021/09/11 07:04:15;;;;;;;46.45;31.48;;;;;;;;;;5114515;28;20449;-65
2021/09/11 07:07:00;;;;;;;54.00;33.03;;;;;;;;;;5114505;28;20052;-65
2021/09/11 07:09:45;;;;;;;50.35;33.33;;;;;;;;;;5114820;28;20051;-65
2021/09/11 07:12:32;;;;;;;46.50;33.13;;;;;;;;;;5114472;28;20047;-65
2021/09/11 07:15:17;;;;;;;52.65;33.92;;;;;;;;;;5098611;28;20055;-65
2021/09/11 07:18:02;;;;;;;52.35;35.17;;;;;;;;;;5099282;28;20105;-65
2021/09/11 07:20:47;;;;;;;49.20;33.42;;;;;;;;;;5114561;28;20138;-64
2021/09/11 07:23:34;;;;;;;46.35;33.63;;;;;;;;;;5114142;28;20491;-64
2021/09/11 07:26:19;;;;;;;48.50;34.17;;;;;;;;;;5113728;28;20052;-65
2021/09/11 07:29:04;;;;;;;45.85;32.28;;;;;;;;;;5098686;28;20081;-64
2021/09/11 07:31:50;;;;;;;50.20;33.92;;;;;;;;;;5114344;28;20123;-64
2021/09/11 07:34:35;;;;;;;52.42;33.00;;;;;;;;;;5113844;28;20472;-64
2021/09/11 07:37:20;;;;;;;48.85;34.10;;;;;;;;;;5114193;28;20501;-64
2021/09/11 07:40:06;;;;;;;45.50;32.40;;;;;;;;;;5114351;28;20055;-64
2021/09/11 07:42:51;;;;;;;46.15;32.83;;;;;;;;;;5114190;28;20063;-64
2021/09/11 07:45:37;;;;;;;43.85;33.03;;;;;;;;;;5109267;28;21089;-64
2021/09/11 07:48:23;;;;;;;50.65;32.63;;;;;;;;;;5093825;28;20048;-64
2021/09/11 07:51:08;;;;;;;37.55;30.10;;;;;;;;;;5093702;28;20048;-64
2021/09/11 07:53:53;;;;;;;52.28;34.25;;;;;;;;;;5093185;28;20052;-64
2021/09/11 07:56:39;;;;;;;45.35;32.63;;;;;;;;;;5093731;28;20064;-64
2021/09/11 07:59:24;;;;;;;44.58;32.22;;;;;;;;;;5093569;28;20119;-64
2021/09/11 08:02:09;;;;;;;50.00;32.53;;;;;;;;;;5093410;28;20452;-64
2021/09/11 08:04:54;;;;;;;47.47;33.85;;;;;;;;;;5092915;28;20048;-64
2021/09/11 08:07:40;;;;;;;44.38;33.03;;;;;;;;;;5093307;28;20052;-64
2021/09/11 08:10:25;;;;;;;46.42;32.65;;;;;;;;;;5093292;28;20048;-64
2021/09/11 08:13:15;;;;;;;53.25;34.72;;;;;;;;;;5092865;28;20402;-65
2021/09/11 08:16:00;;;;;;;48.15;34.50;;;;;;;;;;5093066;28;20509;-64
2021/09/11 08:18:45;;;;;;;50.15;34.35;;;;;;;;;;5093036;28;20052;-64
2021/09/11 08:21:30;;;;;;;54.63;34.72;;;;;;;;;;5092907;28;20052;-64
2021/09/11 08:24:16;;;;;;;52.05;37.28;;;;;;;;;;5092782;28;20122;-64
2021/09/11 08:27:01;;;;;;;54.30;36.40;;;;;;;;;;5092895;28;20051;-65
2021/09/11 08:29:46;;;;;;;57.03;37.67;;;;;;;;;;5092816;28;20051;-64
2021/09/11 08:32:32;;;;;;;51.08;36.53;;;;;;;;;;5092775;28;20044;-64
2021/09/11 08:35:17;;;;;;;53.95;36.40;;;;;;;;;;5092541;28;20044;-64
2021/09/11 08:38:03;;;;;;;55.95;35.75;;;;;;;;;;5092652;28;20064;-64
2021/09/11 08:40:48;;;;;;;49.40;36.25;;;;;;;;;;5092831;28;20422;-64
2021/09/11 08:43:33;;;;;;;48.42;35.03;;;;;;;;;;5077193;28;20052;-65
2021/09/11 08:46:19;;;;;;;56.75;38.20;;;;;;;;;;5077405;28;20047;-64
2021/09/11 08:49:04;;;;;;;53.67;36.58;;;;;;;;;;5092640;28;20052;-64
2021/09/11 08:51:50;;;;;;;53.47;35.63;;;;;;;;;;5092561;28;20119;-64
2021/09/11 08:54:36;;;;;;;49.22;35.28;;;;;;;;;;5092046;28;20048;-64
2021/09/11 08:57:23;;;;;;;45.33;34.42;;;;;;;;;;5092590;28;20047;-64
2021/09/11 09:00:08;;;;;;;47.50;33.03;;;;;;;;;;5092315;28;20506;-64
2021/09/11 09:02:53;;;;;;;45.25;33.72;;;;;;;;;;5092228;28;20075;-64
2021/09/11 09:05:38;;;;;;;44.90;34.03;;;;;;;;;;5077153;28;20055;-64
2021/09/11 09:08:27;;;;;;;43.83;31.55;;;;;;;;;;5092156;28;20573;-64
2021/09/11 09:11:15;;;;;;;41.42;31.40;;;;;;;;;;5092239;28;20051;-64
2021/09/11 09:14:04;;;;;;;43.15;31.65;;;;;;;;;;5092095;28;20043;-64
2021/09/11 09:16:52;;;;;;;42.08;32.38;;;;;;;;;;5092088;28;20501;-64
2021/09/11 09:19:37;;;;;;;43.03;31.38;;;;;;;;;;5092083;28;20048;-64
2021/09/11 09:22:23;;;;;;;39.90;31.33;;;;;;;;;;5077186;28;20477;-65
2021/09/11 09:25:29;;;;;;;38.70;31.73;;;;;;;;;;5091378;28;20081;-64
2021/09/11 09:28:14;;;;;;;41.08;31.40;;;;;;;;;;5091928;28;20052;-65
2021/09/11 09:30:59;;;;;;;38.63;30.85;;;;;;;;;;5092081;28;20052;-64
2021/09/11 09:33:45;;;;;;;39.42;32.55;;;;;;;;;;5091929;28;20048;-63
2021/09/11 09:36:31;;;;;;;39.08;31.38;;;;;;;;;;5091867;28;20051;-64
2021/09/11 09:39:16;;;;;;;40.38;32.20;;;;;;;;;;5092006;28;20044;-64
2021/09/11 09:42:02;;;;;;;34.60;29.02;;;;;;;;;;5092038;28;20043;-64
2021/09/11 09:44:48;;;;;;;36.78;31.13;;;;;;;;;;5091570;28;20119;-64
2021/09/11 09:47:33;;;;;;;35.78;28.73;;;;;;;;;;5091712;28;20514;-64
2021/09/11 09:50:19;;;;;;;37.33;28.02;;;;;;;;;;5076832;28;20048;-64
2021/09/11 09:53:05;;;;;;;38.65;31.80;;;;;;;;;;5091580;28;20509;-64
2021/09/11 09:55:50;;;;;;;36.35;30.13;;;;;;;;;;5091858;28;20052;-64
2021/09/11 09:58:35;;;;;;;36.95;29.38;;;;;;;;;;5076533;28;20044;-64
2021/09/11 10:01:21;;;;;;;37.88;30.00;;;;;;;;;;5091669;28;20048;-63
2021/09/11 10:04:13;;;;;;;34.40;30.63;;;;;;;;;;5091601;28;20060;-64
2021/09/11 10:07:02;;;;;;;37.13;29.27;;;;;;;;;;5076567;28;20413;-64
2021/09/11 10:09:48;;;;;;;36.20;30.02;;;;;;;;;;5091675;28;20052;-64
2021/09/11 10:12:46;;;;;;;31.48;28.08;;;;;;;;;;5080022;28;20501;-64
2021/09/11 10:15:35;;;;;;;36.10;26.50;;;;;;;;;;5091229;28;20506;-64
2021/09/11 10:18:32;;;;;;;29.98;26.58;;;;;;;;;;5091511;28;20069;-64
2021/09/11 10:21:27;;;;;;;37.00;29.05;;;;;;;;;;5099257;28;20505;-64
2021/09/11 10:24:22;;;;;;;31.08;26.33;;;;;;;;;;5105661;28;20063;-64
2021/09/11 10:27:11;;;;;;;34.10;28.67;;;;;;;;;;5094679;28;20055;-64
2021/09/11 10:29:57;;;;;;;33.08;28.40;;;;;;;;;;5104440;28;20108;-64
2021/09/11 10:32:44;;;;;;;33.00;26.92;;;;;;;;;;5089768;28;20131;-64
2021/09/11 10:35:29;;;;;;;35.65;26.50;;;;;;;;;;5108235;28;20047;-63
2021/09/11 10:38:15;;;;;;;31.65;25.58;;;;;;;;;;5101776;28;20039;-64
2021/09/11 10:41:07;;;;;;;33.90;26.00;;;;;;;;;;5097192;28;20043;-63
2021/09/11 10:44:04;;;;;;;28.48;25.02;;;;;;;;;;5112856;28;20051;-64
2021/09/11 10:46:51;;;;;;;32.00;24.92;;;;;;;;;;5112704;28;20413;-64
2021/09/11 10:49:36;;;;;;;28.90;23.35;;;;;;;;;;5112325;28;20051;-64
2021/09/11 10:52:21;;;;;;;27.13;23.05;;;;;;;;;;5111792;28;20048;-64
2021/09/11 10:55:13;;;;;;;28.20;23.67;;;;;;;;;;5112871;28;20044;-64
2021/09/11 10:58:18;;;;;;;34.28;23.92;;;;;;;;;;5096812;28;20063;-64
2021/09/11 11:01:03;;;;;;;26.23;23.23;;;;;;;;;;5112064;28;20055;-64
2021/09/11 11:04:08;;;;;;;26.88;23.27;;;;;;;;;;5094126;28;20051;-64
2021/09/11 11:06:53;;;;;;;24.23;21.33;;;;;;;;;;5092150;28;20127;-64
2021/09/11 11:09:41;;;;;;;24.42;21.33;;;;;;;;;;5110546;28;20044;-68
2021/09/11 11:12:30;;;;;;;25.50;22.73;;;;;;;;;;5072961;28;20683;-68
2021/09/11 11:15:17;;;;;;;26.70;22.02;;;;;;;;;;5090196;28;20056;-68
2021/09/11 11:18:02;;;;;;;29.02;22.73;;;;;;;;;;5076037;28;20080;-68
2021/09/11 11:20:47;;;;;;;25.58;20.95;;;;;;;;;;5094421;28;20066;-68
2021/09/11 11:23:32;;;;;;;27.15;21.55;;;;;;;;;;5093915;28;20056;-68
2021/09/11 11:26:18;;;;;;;26.42;21.40;;;;;;;;;;5062121;28;20413;-67
2021/09/11 11:29:03;;;;;;;25.38;21.63;;;;;;;;;;5093958;28;20131;-67
2021/09/11 11:31:48;;;;;;;32.83;24.85;;;;;;;;;;5094143;28;20052;-67
2021/09/11 11:34:34;;;;;;;26.10;23.25;;;;;;;;;;5061185;28;20130;-68
2021/09/11 11:37:19;;;;;;;29.00;25.77;;;;;;;;;;5075693;28;20086;-68
2021/09/11 11:40:22;;;;;;;28.20;23.48;;;;;;;;;;5093634;28;20052;-68
2021/09/11 11:43:07;;;;;;;30.80;23.67;;;;;;;;;;5075728;28;20048;-68
2021/09/11 11:45:52;;;;;;;27.15;24.10;;;;;;;;;;5075699;28;20052;-65
2021/09/11 11:48:37;;;;;;;26.55;23.25;;;;;;;;;;5093209;28;20118;-65
2021/09/11 11:51:23;;;;;;;28.67;22.63;;;;;;;;;;5093830;28;20083;-65
2021/09/11 11:54:08;;;;;;;31.23;24.00;;;;;;;;;;5093432;28;20119;-64
2021/09/11 11:56:54;;;;;;;26.73;23.50;;;;;;;;;;5093388;28;20052;-66
2021/09/11 11:59:39;;;;;;;25.33;22.70;;;;;;;;;;5093268;28;20056;-66
2021/09/11 12:02:25;;;;;;;29.35;23.40;;;;;;;;;;5093275;28;20140;-65
2021/09/11 12:05:26;;;;;;;26.25;23.45;;;;;;;;;;5092916;28;20502;-65
2021/09/11 12:08:11;;;;;;;27.77;22.80;;;;;;;;;;5093177;28;20048;-65
2021/09/11 12:10:57;;;;;;;27.23;23.42;;;;;;;;;;5093153;28;20056;-65
2021/09/11 12:13:42;;;;;;;35.05;25.23;;;;;;;;;;5092685;28;20498;-64
2021/09/11 12:16:28;;;;;;;28.05;25.15;;;;;;;;;;5077895;28;20052;-65
2021/09/11 12:19:13;;;;;;;27.65;24.35;;;;;;;;;;5093205;28;20044;-65
2021/09/11 12:21:58;;;;;;;30.08;25.02;;;;;;;;;;5093198;28;20048;-64
2021/09/11 12:24:44;;;;;;;29.63;25.02;;;;;;;;;;5092656;28;20048;-64
2021/09/11 12:27:29;;;;;;;32.05;25.33;;;;;;;;;;5092993;28;20048;-64
2021/09/11 12:30:15;;;;;;;28.85;25.20;;;;;;;;;;5093155;28;20056;-64
2021/09/11 12:33:05;;;;;;;27.85;24.73;;;;;;;;;;5092658;28;20051;-64
2021/09/11 12:35:51;;;;;;;28.05;23.92;;;;;;;;;;5092828;28;20052;-65
2021/09/11 12:38:39;;;;;;;31.02;25.05;;;;;;;;;;5092749;28;20056;-64
2021/09/11 12:41:24;;;;;;;27.90;24.95;;;;;;;;;;5092674;28;20067;-64
2021/09/11 12:44:12;;;;;;;29.40;23.90;;;;;;;;;;5092614;28;20261;-65
2021/09/11 12:46:58;;;;;;;28.92;24.73;;;;;;;;;;5092555;28;20044;-64
2021/09/11 12:49:44;;;;;;;27.48;24.67;;;;;;;;;;5092998;28;20048;-65
2021/09/11 12:52:30;;;;;;;26.75;23.42;;;;;;;;;;5092575;28;20048;-64
2021/09/11 12:55:15;;;;;;;27.38;24.42;;;;;;;;;;5092358;28;20048;-64
2021/09/11 12:58:00;;;;;;;29.60;24.23;;;;;;;;;;5092195;28;20055;-65
2021/09/11 13:00:45;;;;;;;29.40;23.80;;;;;;;;;;5076829;28;20060;-64
2021/09/11 13:03:31;;;;;;;28.35;22.58;;;;;;;;;;5092128;28;20048;-65
2021/09/11 13:06:16;;;;;;;24.45;18.42;;;;;;;;;;5092365;28;20052;-65
2021/09/11 13:09:02;;;;;;;22.25;15.13;;;;;;;;;;5092166;28;20081;-65
2021/09/11 13:11:47;;;;;;;14.80;12.75;;;;;;;;;;5092133;28;20511;-65
2021/09/11 13:14:32;;;;;;;16.85;14.25;;;;;;;;;;5091967;28;20090;-64
2021/09/11 13:17:17;;;;;;;17.00;14.15;;;;;;;;;;5092123;28;20115;-65
2021/09/11 13:20:03;;;;;;;20.30;16.05;;;;;;;;;;5092305;28;20052;-65
2021/09/11 13:22:48;;;;;;;22.58;15.00;;;;;;;;;;5092164;28;20411;-64
2021/09/11 13:25:34;;;;;;;15.60;13.82;;;;;;;;;;5091711;28;20048;-64
2021/09/11 13:28:19;;;;;;;18.25;15.30;;;;;;;;;;5092059;28;20044;-65
2021/09/11 13:31:04;;;;;;;15.65;14.10;;;;;;;;;;5092085;28;20052;-65
2021/09/11 13:33:50;;;;;;;13.48;11.82;;;;;;;;;;5091757;28;20044;-65
2021/09/11 13:36:35;;;;;;;15.05;13.65;;;;;;;;;;5092118;28;20056;-65
2021/09/11 13:39:21;;;;;;;13.80;9.90;;;;;;;;;;5092032;28;20060;-65
2021/09/11 13:42:06;;;;;;;9.20;8.27;;;;;;;;;;5091885;28;20056;-66
2021/09/11 13:44:53;;;;;;;9.82;8.50;;;;;;;;;;5091721;28;20048;-65
2021/09/11 13:47:38;;;;;;;8.77;7.75;;;;;;;;;;5092187;28;20044;-65
2021/09/11 13:50:23;;;;;;;9.25;8.32;;;;;;;;;;5091746;28;20048;-66
2021/09/11 13:53:08;;;;;;;9.98;8.20;;;;;;;;;;5091937;28;20127;-65
2021/09/11 13:55:54;;;;;;;12.40;9.27;;;;;;;;;;5091791;28;20045;-66
2021/09/11 13:58:39;;;;;;;13.88;10.25;;;;;;;;;;5091809;28;20087;-66
2021/09/11 14:01:25;;;;;;;12.10;10.27;;;;;;;;;;5091899;28;20059;-66
2021/09/11 14:04:10;;;;;;;14.32;11.13;;;;;;;;;;5091611;28;20052;-66
2021/09/11 14:06:55;;;;;;;11.93;10.73;;;;;;;;;;5091641;28;20338;-65
2021/09/11 14:09:41;;;;;;;12.68;11.38;;;;;;;;;;5091830;28;20123;-65
2021/09/11 14:12:26;;;;;;;16.63;11.70;;;;;;;;;;5095585;28;20142;-65
2021/09/11 14:15:12;;;;;;;16.40;11.82;;;;;;;;;;5095179;28;20498;-66
2021/09/11 14:17:57;;;;;;;12.00;10.07;;;;;;;;;;5095332;28;20056;-66
2021/09/11 14:20:42;;;;;;;12.05;9.57;;;;;;;;;;5095636;28;20048;-65
2021/09/11 14:23:28;;;;;;;11.85;9.65;;;;;;;;;;5095086;28;20047;-65
2021/09/11 14:26:13;;;;;;;11.90;10.25;;;;;;;;;;5095151;28;20052;-66
2021/09/11 14:28:59;;;;;;;12.85;11.13;;;;;;;;;;5079906;28;20520;-65
2021/09/11 14:31:44;;;;;;;15.52;12.15;;;;;;;;;;5095186;28;20150;-65
2021/09/11 14:34:33;;;;;;;15.35;12.77;;;;;;;;;;5094637;28;20123;-65
2021/09/11 14:37:18;;;;;;;14.63;13.23;;;;;;;;;;5095116;28;20059;-65
2021/09/11 14:40:03;;;;;;;15.35;13.80;;;;;;;;;;5094954;28;20056;-65
2021/09/11 14:42:48;;;;;;;14.25;12.85;;;;;;;;;;5094652;28;20060;-65
2021/09/11 14:45:34;;;;;;;18.20;13.18;;;;;;;;;;5094862;28;20127;-65
2021/09/11 14:48:19;;;;;;;14.45;12.95;;;;;;;;;;5094822;28;20144;-65
2021/09/11 14:51:05;;;;;;;16.00;14.15;;;;;;;;;;5094717;28;20048;-65
2021/09/11 14:53:51;;;;;;;14.48;13.07;;;;;;;;;;5094540;28;20119;-65
2021/09/11 14:56:36;;;;;;;15.63;13.75;;;;;;;;;;5094753;28;20051;-65
2021/09/11 14:59:21;;;;;;;14.25;12.15;;;;;;;;;;5094514;28;20056;-65
2021/09/11 15:02:06;;;;;;;13.75;12.32;;;;;;;;;;5094724;28;20052;-65
2021/09/11 15:04:57;;;;;;;14.75;12.65;;;;;;;;;;5094207;28;20509;-65
2021/09/11 15:07:43;;;;;;;12.73;11.35;;;;;;;;;;5094275;28;20119;-65
2021/09/11 15:10:28;;;;;;;13.48;12.15;;;;;;;;;;5094545;28;20048;-65
2021/09/11 15:13:13;;;;;;;13.32;11.10;;;;;;;;;;5093894;28;20048;-65
2021/09/11 15:16:01;;;;;;;12.57;11.18;;;;;;;;;;5093997;28;20044;-65
2021/09/11 15:18:47;;;;;;;15.32;12.63;;;;;;;;;;5094294;28;20056;-65
2021/09/11 15:21:32;;;;;;;15.25;12.93;;;;;;;;;;5093581;28;20052;-65
2021/09/11 15:24:17;;;;;;;13.85;12.18;;;;;;;;;;5078530;28;20457;-65
2021/09/11 15:27:03;;;;;;;13.32;11.82;;;;;;;;;;5097964;28;20051;-65
2021/09/11 15:29:48;;;;;;;14.82;12.40;;;;;;;;;;5094110;28;20052;-65
2021/09/11 15:32:33;;;;;;;14.13;12.40;;;;;;;;;;5093807;28;20055;-65
2021/09/11 15:35:18;;;;;;;15.32;13.70;;;;;;;;;;5079117;28;20048;-65
2021/09/11 15:38:03;;;;;;;17.98;14.85;;;;;;;;;;5093914;28;20044;-65
2021/09/11 15:40:49;;;;;;;18.83;13.77;;;;;;;;;;5093757;28;20048;-65
2021/09/11 15:43:34;;;;;;;15.60;13.73;;;;;;;;;;5093597;28;20048;-65
2021/09/11 15:46:20;;;;;;;16.10;13.98;;;;;;;;;;5093766;28;20052;-66
2021/09/11 15:49:05;;;;;;;18.65;13.52;;;;;;;;;;5078535;28;20047;-65
2021/09/11 15:51:50;;;;;;;16.33;13.90;;;;;;;;;;5093590;28;20506;-66
2021/09/11 15:54:36;;;;;;;18.98;14.00;;;;;;;;;;5093286;28;20123;-65
2021/09/11 15:57:21;;;;;;;16.98;14.45;;;;;;;;;;5093555;28;20048;-65
2021/09/11 16:00:07;;;;;;;16.58;14.30;;;;;;;;;;5078349;28;20048;-66
2021/09/11 16:02:54;;;;;;;19.27;14.88;;;;;;;;;;5093404;28;20044;-65
2021/09/11 16:05:39;;;;;;;18.50;15.93;;;;;;;;;;5093156;28;20052;-65